sensor_id;sensor_type;location;lat;lon;timestamp;P1;durP1;ratioP1;P2;durP2;ratioP2
22673;SDS011;11504;43.334;21.918;2023-01-08T00:04:24;130.0;;;111.0;;
22673;SDS011;11504;43.334;21.918;2023-01-08T00:09:01;130.0;;;111.0;;
22673;SDS011;11504;43.334;21.918;2023-01-08T00:13:39;215.0;;;183.0;;
22673;SDS011;11504;43.334;21.918;2023-01-08T00:18:17;215.0;;;183.0;;
22673;SDS011;11504;43.334;21.918;2023-01-08T00:22:55;194.0;;;166.0;;
22673;SDS011;11504;43.334;21.918;2023-01-08T00:27:31;194.0;;;166.0;;
22673;SDS011;11504;43.334;21.918;2023-01-08T00:32:08;173.0;;;148.0;;
22673;SDS011;11504;43.334;21.918;2023-01-08T00:36:44;173.0;;;148.0;;
22673;SDS011;11504;43.334;21.918;2023-01-08T00:41:21;167.0;;;144.0;;
22673;SDS011;11504;43.334;21.918;2023-01-08T00:45:57;167.0;;;144.0;;
22673;SDS011;11504;43.334;21.918;2023-01-08T00:50:34;161.0;;;141.0;;
22673;SDS011;11504;43.334;21.918;2023-01-08T00:55:11;161.0;;;141.0;;
22673;SDS011;11504;43.334;21.918;2023-01-08T00:59:48;161.0;;;141.0;;
22673;SDS011;11504;43.334;21.918;2023-01-08T01:04:24;96.0;;;85.0;;
22673;SDS011;11504;43.334;21.918;2023-01-08T01:09:02;96.0;;;85.0;;
22673;SDS011;11504;43.334;21.918;2023-01-08T01:13:38;31.0;;;29.0;;
22673;SDS011;11504;43.334;21.918;2023-01-08T01:18:15;31.0;;;29.0;;
22673;SDS011;11504;43.334;21.918;2023-01-08T01:22:51;24.0;;;22.0;;
22673;SDS011;11504;43.334;21.918;2023-01-08T01:27:28;24.0;;;22.0;;
22673;SDS011;11504;43.334;21.918;2023-01-08T01:32:05;16.0;;;15.0;;
22673;SDS011;11504;43.334;21.918;2023-01-08T01:36:43;16.0;;;15.0;;
22673;SDS011;11504;43.334;21.918;2023-01-08T01:41:22;48.0;;;42.0;;
22673;SDS011;11504;43.334;21.918;2023-01-08T01:46:14;48.0;;;42.0;;
22673;SDS011;11504;43.334;21.918;2023-01-08T01:51:12;79.0;;;68.0;;
22673;SDS011;11504;43.334;21.918;2023-01-08T01:55:49;79.0;;;68.0;;
22673;SDS011;11504;43.334;21.918;2023-01-08T02:00:26;79.0;;;68.0;;
22673;SDS011;11504;43.334;21.918;2023-01-08T02:05:06;116.0;;;93.0;;
22673;SDS011;11504;43.334;21.918;2023-01-08T02:09:47;116.0;;;93.0;;
22673;SDS011;11504;43.334;21.918;2023-01-08T02:15:06;152.0;;;118.0;;
22673;SDS011;11504;43.334;21.918;2023-01-08T02:20:15;152.0;;;118.0;;
22673;SDS011;11504;43.334;21.918;2023-01-08T02:25:18;138.0;;;106.0;;
22673;SDS011;11504;43.334;21.918;2023-01-08T02:31:04;123.0;;;94.0;;
22673;SDS011;11504;43.334;21.918;2023-01-08T02:35:49;123.0;;;94.0;;
22673;SDS011;11504;43.334;21.918;2023-01-08T02:41:18;103.0;;;79.0;;
22673;SDS011;11504;43.334;21.918;2023-01-08T02:46:55;103.0;;;79.0;;
22673;SDS011;11504;43.334;21.918;2023-01-08T02:52:03;83.0;;;64.0;;
22673;SDS011;11504;43.334;21.918;2023-01-08T02:56:55;83.0;;;64.0;;
22673;SDS011;11504;43.334;21.918;2023-01-08T03:01:55;86.0;;;70.0;;
22673;SDS011;11504;43.334;21.918;2023-01-08T03:06:37;86.0;;;70.0;;
22673;SDS011;11504;43.334;21.918;2023-01-08T03:11:18;90.0;;;75.0;;
22673;SDS011;11504;43.334;21.918;2023-01-08T03:16:21;90.0;;;75.0;;
22673;SDS011;11504;43.334;21.918;2023-01-08T03:21:20;82.0;;;70.0;;
22673;SDS011;11504;43.334;21.918;2023-01-08T03:25:59;82.0;;;70.0;;
22673;SDS011;11504;43.334;21.918;2023-01-08T03:30:43;73.0;;;65.0;;
22673;SDS011;11504;43.334;21.918;2023-01-08T03:35:28;73.0;;;65.0;;
22673;SDS011;11504;43.334;21.918;2023-01-08T03:40:21;73.0;;;65.0;;
22673;SDS011;11504;43.334;21.918;2023-01-08T03:45:19;64.0;;;58.0;;
22673;SDS011;11504;43.334;21.918;2023-01-08T03:50:08;64.0;;;58.0;;
22673;SDS011;11504;43.334;21.918;2023-01-08T03:55:07;54.0;;;51.0;;
22673;SDS011;11504;43.334;21.918;2023-01-08T03:59:45;54.0;;;51.0;;
22673;SDS011;11504;43.334;21.918;2023-01-08T04:04:23;54.0;;;50.0;;
22673;SDS011;11504;43.334;21.918;2023-01-08T04:08:59;54.0;;;50.0;;
22673;SDS011;11504;43.334;21.918;2023-01-08T04:13:36;55.0;;;49.0;;
22673;SDS011;11504;43.334;21.918;2023-01-08T04:18:13;55.0;;;49.0;;
22673;SDS011;11504;43.334;21.918;2023-01-08T04:22:49;58.0;;;51.0;;
22673;SDS011;11504;43.334;21.918;2023-01-08T04:27:25;58.0;;;51.0;;
22673;SDS011;11504;43.334;21.918;2023-01-08T04:32:02;60.0;;;53.0;;
22673;SDS011;11504;43.334;21.918;2023-01-08T04:36:39;60.0;;;53.0;;
22673;SDS011;11504;43.334;21.918;2023-01-08T04:41:15;64.0;;;59.0;;
22673;SDS011;11504;43.334;21.918;2023-01-08T04:45:52;64.0;;;59.0;;
22673;SDS011;11504;43.334;21.918;2023-01-08T04:50:36;64.0;;;59.0;;
22673;SDS011;11504;43.334;21.918;2023-01-08T04:55:13;69.0;;;65.0;;
22673;SDS011;11504;43.334;21.918;2023-01-08T04:59:52;69.0;;;65.0;;
22673;SDS011;11504;43.334;21.918;2023-01-08T05:04:29;72.0;;;66.0;;
22673;SDS011;11504;43.334;21.918;2023-01-08T05:09:07;72.0;;;66.0;;
22673;SDS011;11504;43.334;21.918;2023-01-08T05:13:46;75.0;;;66.0;;
22673;SDS011;11504;43.334;21.918;2023-01-08T05:18:28;75.0;;;66.0;;
22673;SDS011;11504;43.334;21.918;2023-01-08T05:23:06;78.0;;;68.0;;
22673;SDS011;11504;43.334;21.918;2023-01-08T05:27:43;78.0;;;68.0;;
22673;SDS011;11504;43.334;21.918;2023-01-08T05:32:21;80.0;;;69.0;;
22673;SDS011;11504;43.334;21.918;2023-01-08T05:36:58;80.0;;;69.0;;
22673;SDS011;11504;43.334;21.918;2023-01-08T05:41:35;92.0;;;77.0;;
22673;SDS011;11504;43.334;21.918;2023-01-08T05:46:12;92.0;;;77.0;;
22673;SDS011;11504;43.334;21.918;2023-01-08T05:50:49;92.0;;;77.0;;
22673;SDS011;11504;43.334;21.918;2023-01-08T05:55:25;103.0;;;85.0;;
22673;SDS011;11504;43.334;21.918;2023-01-08T06:00:02;103.0;;;85.0;;
22673;SDS011;11504;43.334;21.918;2023-01-08T06:04:46;95.0;;;80.0;;
22673;SDS011;11504;43.334;21.918;2023-01-08T06:09:23;95.0;;;80.0;;
22673;SDS011;11504;43.334;21.918;2023-01-08T06:13:59;87.0;;;76.0;;
22673;SDS011;11504;43.334;21.918;2023-01-08T06:18:36;87.0;;;76.0;;
22673;SDS011;11504;43.334;21.918;2023-01-08T06:23:13;92.0;;;79.0;;
22673;SDS011;11504;43.334;21.918;2023-01-08T06:27:50;92.0;;;79.0;;
22673;SDS011;11504;43.334;21.918;2023-01-08T06:32:28;97.0;;;82.0;;
22673;SDS011;11504;43.334;21.918;2023-01-08T06:37:04;97.0;;;82.0;;
22673;SDS011;11504;43.334;21.918;2023-01-08T06:41:41;96.0;;;80.0;;
22673;SDS011;11504;43.334;21.918;2023-01-08T06:46:19;96.0;;;80.0;;
22673;SDS011;11504;43.334;21.918;2023-01-08T06:50:58;96.0;;;79.0;;
22673;SDS011;11504;43.334;21.918;2023-01-08T06:55:39;96.0;;;79.0;;
22673;SDS011;11504;43.334;21.918;2023-01-08T07:00:16;96.0;;;79.0;;
22673;SDS011;11504;43.334;21.918;2023-01-08T07:04:53;118.0;;;96.0;;
22673;SDS011;11504;43.334;21.918;2023-01-08T07:09:29;118.0;;;96.0;;
22673;SDS011;11504;43.334;21.918;2023-01-08T07:14:08;139.0;;;114.0;;
22673;SDS011;11504;43.334;21.918;2023-01-08T07:18:45;139.0;;;114.0;;
22673;SDS011;11504;43.334;21.918;2023-01-08T07:23:21;142.0;;;118.0;;
22673;SDS011;11504;43.334;21.918;2023-01-08T07:27:58;142.0;;;118.0;;
22673;SDS011;11504;43.334;21.918;2023-01-08T07:32:36;146.0;;;121.0;;
22673;SDS011;11504;43.334;21.918;2023-01-08T07:37:13;146.0;;;121.0;;
22673;SDS011;11504;43.334;21.918;2023-01-08T07:41:50;122.0;;;102.0;;
22673;SDS011;11504;43.334;21.918;2023-01-08T07:46:27;122.0;;;102.0;;
22673;SDS011;11504;43.334;21.918;2023-01-08T07:51:05;99.0;;;83.0;;
22673;SDS011;11504;43.334;21.918;2023-01-08T07:55:45;99.0;;;83.0;;
22673;SDS011;11504;43.334;21.918;2023-01-08T08:00:22;99.0;;;83.0;;
22673;SDS011;11504;43.334;21.918;2023-01-08T08:05:01;90.0;;;79.0;;
22673;SDS011;11504;43.334;21.918;2023-01-08T08:09:43;90.0;;;79.0;;
22673;SDS011;11504;43.334;21.918;2023-01-08T08:14:20;80.0;;;75.0;;
22673;SDS011;11504;43.334;21.918;2023-01-08T08:18:57;80.0;;;75.0;;
22673;SDS011;11504;43.334;21.918;2023-01-08T08:23:34;68.0;;;64.0;;
22673;SDS011;11504;43.334;21.918;2023-01-08T08:28:11;68.0;;;64.0;;
22673;SDS011;11504;43.334;21.918;2023-01-08T08:32:48;57.0;;;54.0;;
22673;SDS011;11504;43.334;21.918;2023-01-08T08:37:24;57.0;;;54.0;;
22673;SDS011;11504;43.334;21.918;2023-01-08T08:42:01;57.0;;;54.0;;
22673;SDS011;11504;43.334;21.918;2023-01-08T08:46:38;57.0;;;54.0;;
22673;SDS011;11504;43.334;21.918;2023-01-08T08:51:15;57.0;;;54.0;;
22673;SDS011;11504;43.334;21.918;2023-01-08T08:55:51;57.0;;;54.0;;
22673;SDS011;11504;43.334;21.918;2023-01-08T09:00:28;57.0;;;54.0;;
22673;SDS011;11504;43.334;21.918;2023-01-08T09:05:05;62.0;;;59.0;;
22673;SDS011;11504;43.334;21.918;2023-01-08T09:09:44;62.0;;;59.0;;
22673;SDS011;11504;43.334;21.918;2023-01-08T09:14:21;67.0;;;64.0;;
22673;SDS011;11504;43.334;21.918;2023-01-08T09:18:58;67.0;;;64.0;;
22673;SDS011;11504;43.334;21.918;2023-01-08T09:23:35;59.0;;;56.0;;
22673;SDS011;11504;43.334;21.918;2023-01-08T09:28:12;59.0;;;56.0;;
22673;SDS011;11504;43.334;21.918;2023-01-08T09:32:49;51.0;;;49.0;;
22673;SDS011;11504;43.334;21.918;2023-01-08T09:37:25;51.0;;;49.0;;
22673;SDS011;11504;43.334;21.918;2023-01-08T09:42:03;54.0;;;52.0;;
22673;SDS011;11504;43.334;21.918;2023-01-08T09:46:45;54.0;;;52.0;;
22673;SDS011;11504;43.334;21.918;2023-01-08T09:51:26;57.0;;;54.0;;
22673;SDS011;11504;43.334;21.918;2023-01-08T09:56:14;57.0;;;54.0;;
22673;SDS011;11504;43.334;21.918;2023-01-08T10:00:54;57.0;;;54.0;;
22673;SDS011;11504;43.334;21.918;2023-01-08T10:05:35;66.0;;;62.0;;
22673;SDS011;11504;43.334;21.918;2023-01-08T10:10:15;66.0;;;62.0;;
22673;SDS011;11504;43.334;21.918;2023-01-08T10:15:10;74.0;;;71.0;;
22673;SDS011;11504;43.334;21.918;2023-01-08T10:19:57;74.0;;;71.0;;
22673;SDS011;11504;43.334;21.918;2023-01-08T10:24:35;74.0;;;70.0;;
22673;SDS011;11504;43.334;21.918;2023-01-08T10:29:14;74.0;;;70.0;;
22673;SDS011;11504;43.334;21.918;2023-01-08T10:33:54;73.0;;;70.0;;
22673;SDS011;11504;43.334;21.918;2023-01-08T10:38:47;73.0;;;70.0;;
22673;SDS011;11504;43.334;21.918;2023-01-08T10:43:41;68.0;;;66.0;;
22673;SDS011;11504;43.334;21.918;2023-01-08T10:48:43;68.0;;;66.0;;
22673;SDS011;11504;43.334;21.918;2023-01-08T10:53:38;64.0;;;61.0;;
22673;SDS011;11504;43.334;21.918;2023-01-08T10:58:16;64.0;;;61.0;;
22673;SDS011;11504;43.334;21.918;2023-01-08T11:02:52;59.0;;;56.0;;
22673;SDS011;11504;43.334;21.918;2023-01-08T11:07:40;59.0;;;56.0;;
22673;SDS011;11504;43.334;21.918;2023-01-08T11:12:32;54.0;;;51.0;;
22673;SDS011;11504;43.334;21.918;2023-01-08T11:17:16;54.0;;;51.0;;
22673;SDS011;11504;43.334;21.918;2023-01-08T11:21:53;50.0;;;48.0;;
22673;SDS011;11504;43.334;21.918;2023-01-08T11:26:40;50.0;;;48.0;;
22673;SDS011;11504;43.334;21.918;2023-01-08T11:31:40;47.0;;;45.0;;
22673;SDS011;11504;43.334;21.918;2023-01-08T11:37:04;47.0;;;45.0;;
22673;SDS011;11504;43.334;21.918;2023-01-08T11:42:06;48.0;;;46.0;;
22673;SDS011;11504;43.334;21.918;2023-01-08T11:47:58;48.0;;;46.0;;
22673;SDS011;11504;43.334;21.918;2023-01-08T11:53:40;50.0;;;47.0;;
22673;SDS011;11504;43.334;21.918;2023-01-08T11:59:11;50.0;;;47.0;;
22673;SDS011;11504;43.334;21.918;2023-01-08T12:04:57;46.0;;;44.0;;
22673;SDS011;11504;43.334;21.918;2023-01-08T12:10:19;46.0;;;44.0;;
22673;SDS011;11504;43.334;21.918;2023-01-08T12:15:45;43.0;;;41.0;;
22673;SDS011;11504;43.334;21.918;2023-01-08T12:21:30;44.0;;;42.0;;
22673;SDS011;11504;43.334;21.918;2023-01-08T12:26:40;44.0;;;42.0;;
22673;SDS011;11504;43.334;21.918;2023-01-08T12:31:57;45.0;;;43.0;;
22673;SDS011;11504;43.334;21.918;2023-01-08T12:37:05;45.0;;;43.0;;
22673;SDS011;11504;43.334;21.918;2023-01-08T12:42:10;40.0;;;38.0;;
22673;SDS011;11504;43.334;21.918;2023-01-08T12:47:04;40.0;;;38.0;;
22673;SDS011;11504;43.334;21.918;2023-01-08T12:51:59;34.0;;;33.0;;
22673;SDS011;11504;43.334;21.918;2023-01-08T12:57:04;34.0;;;33.0;;
22673;SDS011;11504;43.334;21.918;2023-01-08T13:02:14;33.0;;;32.0;;
22673;SDS011;11504;43.334;21.918;2023-01-08T13:07:34;33.0;;;32.0;;
22673;SDS011;11504;43.334;21.918;2023-01-08T13:12:34;32.0;;;30.0;;
22673;SDS011;11504;43.334;21.918;2023-01-08T13:17:16;32.0;;;30.0;;
22673;SDS011;11504;43.334;21.918;2023-01-08T13:21:58;37.0;;;34.0;;
22673;SDS011;11504;43.334;21.918;2023-01-08T13:26:37;37.0;;;34.0;;
22673;SDS011;11504;43.334;21.918;2023-01-08T13:31:24;37.0;;;34.0;;
22673;SDS011;11504;43.334;21.918;2023-01-08T13:36:15;42.0;;;39.0;;
22673;SDS011;11504;43.334;21.918;2023-01-08T13:41:04;42.0;;;39.0;;
22673;SDS011;11504;43.334;21.918;2023-01-08T13:46:07;36.0;;;34.0;;
22673;SDS011;11504;43.334;21.918;2023-01-08T13:50:55;36.0;;;34.0;;
22673;SDS011;11504;43.334;21.918;2023-01-08T13:55:33;30.0;;;28.0;;
22673;SDS011;11504;43.334;21.918;2023-01-08T14:00:35;30.0;;;28.0;;
22673;SDS011;11504;43.334;21.918;2023-01-08T14:05:30;26.0;;;24.0;;
22673;SDS011;11504;43.334;21.918;2023-01-08T14:10:11;26.0;;;24.0;;
22673;SDS011;11504;43.334;21.918;2023-01-08T14:14:54;21.0;;;20.0;;
22673;SDS011;11504;43.334;21.918;2023-01-08T14:19:34;21.0;;;20.0;;
22673;SDS011;11504;43.334;21.918;2023-01-08T14:24:10;21.0;;;20.0;;
22673;SDS011;11504;43.334;21.918;2023-01-08T14:28:57;21.0;;;20.0;;
22673;SDS011;11504;43.334;21.918;2023-01-08T14:33:34;21.0;;;19.0;;
22673;SDS011;11504;43.334;21.918;2023-01-08T14:38:16;21.0;;;19.0;;
22673;SDS011;11504;43.334;21.918;2023-01-08T14:42:53;24.0;;;22.0;;
22673;SDS011;11504;43.334;21.918;2023-01-08T14:47:42;24.0;;;22.0;;
22673;SDS011;11504;43.334;21.918;2023-01-08T14:52:30;26.0;;;25.0;;
22673;SDS011;11504;43.334;21.918;2023-01-08T14:57:15;26.0;;;25.0;;
22673;SDS011;11504;43.334;21.918;2023-01-08T15:01:56;44.0;;;40.0;;
22673;SDS011;11504;43.334;21.918;2023-01-08T15:06:47;44.0;;;40.0;;
22673;SDS011;11504;43.334;21.918;2023-01-08T15:11:47;63.0;;;54.0;;
22673;SDS011;11504;43.334;21.918;2023-01-08T15:16:34;63.0;;;54.0;;
22673;SDS011;11504;43.334;21.918;2023-01-08T15:21:17;63.0;;;54.0;;
22673;SDS011;11504;43.334;21.918;2023-01-08T15:25:58;65.0;;;58.0;;
22673;SDS011;11504;43.334;21.918;2023-01-08T15:30:36;65.0;;;58.0;;
22673;SDS011;11504;43.334;21.918;2023-01-08T15:35:23;67.0;;;63.0;;
22673;SDS011;11504;43.334;21.918;2023-01-08T15:39:59;67.0;;;63.0;;
22673;SDS011;11504;43.334;21.918;2023-01-08T15:44:36;80.0;;;76.0;;
22673;SDS011;11504;43.334;21.918;2023-01-08T15:49:13;80.0;;;76.0;;
22673;SDS011;11504;43.334;21.918;2023-01-08T15:53:50;94.0;;;89.0;;
22673;SDS011;11504;43.334;21.918;2023-01-08T15:58:27;94.0;;;89.0;;
22673;SDS011;11504;43.334;21.918;2023-01-08T16:03:05;140.0;;;132.0;;
22673;SDS011;11504;43.334;21.918;2023-01-08T16:07:49;140.0;;;132.0;;
22673;SDS011;11504;43.334;21.918;2023-01-08T16:12:26;185.0;;;176.0;;
22673;SDS011;11504;43.334;21.918;2023-01-08T16:17:03;185.0;;;176.0;;
22673;SDS011;11504;43.334;21.918;2023-01-08T16:21:43;186.0;;;170.0;;
22673;SDS011;11504;43.334;21.918;2023-01-08T16:26:19;186.0;;;170.0;;
22673;SDS011;11504;43.334;21.918;2023-01-08T16:30:56;186.0;;;170.0;;
22673;SDS011;11504;43.334;21.918;2023-01-08T16:35:32;188.0;;;163.0;;
22673;SDS011;11504;43.334;21.918;2023-01-08T16:40:09;188.0;;;163.0;;
22673;SDS011;11504;43.334;21.918;2023-01-08T16:44:49;182.0;;;165.0;;
22673;SDS011;11504;43.334;21.918;2023-01-08T16:49:26;182.0;;;165.0;;
22673;SDS011;11504;43.334;21.918;2023-01-08T16:54:03;177.0;;;167.0;;
22673;SDS011;11504;43.334;21.918;2023-01-08T16:58:41;177.0;;;167.0;;
22673;SDS011;11504;43.334;21.918;2023-01-08T17:03:17;133.0;;;124.0;;
22673;SDS011;11504;43.334;21.918;2023-01-08T17:07:54;133.0;;;124.0;;
22673;SDS011;11504;43.334;21.918;2023-01-08T17:12:33;89.0;;;80.0;;
22673;SDS011;11504;43.334;21.918;2023-01-08T17:17:09;89.0;;;80.0;;
22673;SDS011;11504;43.334;21.918;2023-01-08T17:21:47;90.0;;;84.0;;
22673;SDS011;11504;43.334;21.918;2023-01-08T17:26:25;90.0;;;84.0;;
22673;SDS011;11504;43.334;21.918;2023-01-08T17:31:02;90.0;;;84.0;;
22673;SDS011;11504;43.334;21.918;2023-01-08T17:35:48;92.0;;;87.0;;
22673;SDS011;11504;43.334;21.918;2023-01-08T17:40:25;92.0;;;87.0;;
22673;SDS011;11504;43.334;21.918;2023-01-08T17:45:01;100.0;;;93.0;;
22673;SDS011;11504;43.334;21.918;2023-01-08T17:49:40;100.0;;;93.0;;
22673;SDS011;11504;43.334;21.918;2023-01-08T17:54:16;108.0;;;99.0;;
22673;SDS011;11504;43.334;21.918;2023-01-08T17:58:53;108.0;;;99.0;;
22673;SDS011;11504;43.334;21.918;2023-01-08T18:03:29;82.0;;;76.0;;
22673;SDS011;11504;43.334;21.918;2023-01-08T18:08:06;82.0;;;76.0;;
22673;SDS011;11504;43.334;21.918;2023-01-08T18:12:42;57.0;;;53.0;;
22673;SDS011;11504;43.334;21.918;2023-01-08T18:17:19;57.0;;;53.0;;
22673;SDS011;11504;43.334;21.918;2023-01-08T18:21:56;56.0;;;50.0;;
22673;SDS011;11504;43.334;21.918;2023-01-08T18:26:33;56.0;;;50.0;;
22673;SDS011;11504;43.334;21.918;2023-01-08T18:31:12;56.0;;;50.0;;
22673;SDS011;11504;43.334;21.918;2023-01-08T18:35:51;54.0;;;47.0;;
22673;SDS011;11504;43.334;21.918;2023-01-08T18:40:28;54.0;;;47.0;;
22673;SDS011;11504;43.334;21.918;2023-01-08T18:45:06;60.0;;;52.0;;
22673;SDS011;11504;43.334;21.918;2023-01-08T18:49:45;60.0;;;52.0;;
22673;SDS011;11504;43.334;21.918;2023-01-08T18:54:25;66.0;;;57.0;;
22673;SDS011;11504;43.334;21.918;2023-01-08T18:59:03;66.0;;;57.0;;
22673;SDS011;11504;43.334;21.918;2023-01-08T19:03:45;59.0;;;52.0;;
22673;SDS011;11504;43.334;21.918;2023-01-08T19:08:21;59.0;;;52.0;;
22673;SDS011;11504;43.334;21.918;2023-01-08T19:12:59;52.0;;;48.0;;
22673;SDS011;11504;43.334;21.918;2023-01-08T19:17:35;52.0;;;48.0;;
22673;SDS011;11504;43.334;21.918;2023-01-08T19:22:13;48.0;;;45.0;;
22673;SDS011;11504;43.334;21.918;2023-01-08T19:26:49;48.0;;;45.0;;
22673;SDS011;11504;43.334;21.918;2023-01-08T19:31:26;48.0;;;45.0;;
22673;SDS011;11504;43.334;21.918;2023-01-08T19:36:04;44.0;;;42.0;;
22673;SDS011;11504;43.334;21.918;2023-01-08T19:40:45;44.0;;;42.0;;
22673;SDS011;11504;43.334;21.918;2023-01-08T19:45:22;43.0;;;41.0;;
22673;SDS011;11504;43.334;21.918;2023-01-08T19:49:58;43.0;;;41.0;;
22673;SDS011;11504;43.334;21.918;2023-01-08T19:54:35;42.0;;;40.0;;
22673;SDS011;11504;43.334;21.918;2023-01-08T19:59:12;42.0;;;40.0;;
22673;SDS011;11504;43.334;21.918;2023-01-08T20:03:48;54.0;;;52.0;;
22673;SDS011;11504;43.334;21.918;2023-01-08T20:08:29;54.0;;;52.0;;
22673;SDS011;11504;43.334;21.918;2023-01-08T20:13:05;66.0;;;63.0;;
22673;SDS011;11504;43.334;21.918;2023-01-08T20:17:42;66.0;;;63.0;;
22673;SDS011;11504;43.334;21.918;2023-01-08T20:22:19;54.0;;;50.0;;
22673;SDS011;11504;43.334;21.918;2023-01-08T20:26:55;54.0;;;50.0;;
22673;SDS011;11504;43.334;21.918;2023-01-08T20:31:32;54.0;;;50.0;;
22673;SDS011;11504;43.334;21.918;2023-01-08T20:36:10;42.0;;;38.0;;
22673;SDS011;11504;43.334;21.918;2023-01-08T20:40:52;42.0;;;38.0;;
22673;SDS011;11504;43.334;21.918;2023-01-08T20:45:28;48.0;;;44.0;;
22673;SDS011;11504;43.334;21.918;2023-01-08T20:50:05;48.0;;;44.0;;
22673;SDS011;11504;43.334;21.918;2023-01-08T20:54:45;53.0;;;51.0;;
22673;SDS011;11504;43.334;21.918;2023-01-08T20:59:22;53.0;;;51.0;;
22673;SDS011;11504;43.334;21.918;2023-01-08T21:04:03;50.0;;;48.0;;
22673;SDS011;11504;43.334;21.918;2023-01-08T21:08:46;50.0;;;48.0;;
22673;SDS011;11504;43.334;21.918;2023-01-08T21:13:32;46.0;;;44.0;;
22673;SDS011;11504;43.334;21.918;2023-01-08T21:18:12;46.0;;;44.0;;
22673;SDS011;11504;43.334;21.918;2023-01-08T21:22:48;56.0;;;54.0;;
22673;SDS011;11504;43.334;21.918;2023-01-08T21:27:25;56.0;;;54.0;;
22673;SDS011;11504;43.334;21.918;2023-01-08T21:32:02;66.0;;;63.0;;
22673;SDS011;11504;43.334;21.918;2023-01-08T21:36:39;66.0;;;63.0;;
22673;SDS011;11504;43.334;21.918;2023-01-08T21:41:17;66.0;;;63.0;;
22673;SDS011;11504;43.334;21.918;2023-01-08T21:46:04;72.0;;;68.0;;
22673;SDS011;11504;43.334;21.918;2023-01-08T21:50:41;72.0;;;68.0;;
22673;SDS011;11504;43.334;21.918;2023-01-08T21:55:18;78.0;;;72.0;;
22673;SDS011;11504;43.334;21.918;2023-01-08T21:59:56;78.0;;;72.0;;
22673;SDS011;11504;43.334;21.918;2023-01-08T22:04:32;73.0;;;68.0;;
22673;SDS011;11504;43.334;21.918;2023-01-08T22:09:09;73.0;;;68.0;;
22673;SDS011;11504;43.334;21.918;2023-01-08T22:13:45;68.0;;;64.0;;
22673;SDS011;11504;43.334;21.918;2023-01-08T22:18:22;68.0;;;64.0;;
22673;SDS011;11504;43.334;21.918;2023-01-08T22:22:58;50.0;;;48.0;;
22673;SDS011;11504;43.334;21.918;2023-01-08T22:27:35;50.0;;;48.0;;
22673;SDS011;11504;43.334;21.918;2023-01-08T22:32:11;33.0;;;31.0;;
22673;SDS011;11504;43.334;21.918;2023-01-08T22:36:49;33.0;;;31.0;;
22673;SDS011;11504;43.334;21.918;2023-01-08T22:41:28;33.0;;;31.0;;
22673;SDS011;11504;43.334;21.918;2023-01-08T22:46:04;29.0;;;28.0;;
22673;SDS011;11504;43.334;21.918;2023-01-08T22:50:41;29.0;;;28.0;;
22673;SDS011;11504;43.334;21.918;2023-01-08T22:55:17;25.0;;;24.0;;
22673;SDS011;11504;43.334;21.918;2023-01-08T22:59:54;25.0;;;24.0;;
22673;SDS011;11504;43.334;21.918;2023-01-08T23:04:31;22.0;;;20.0;;
22673;SDS011;11504;43.334;21.918;2023-01-08T23:09:07;22.0;;;20.0;;
22673;SDS011;11504;43.334;21.918;2023-01-08T23:13:44;19.0;;;17.0;;
22673;SDS011;11504;43.334;21.918;2023-01-08T23:18:23;19.0;;;17.0;;
22673;SDS011;11504;43.334;21.918;2023-01-08T23:22:59;18.0;;;16.0;;
22673;SDS011;11504;43.334;21.918;2023-01-08T23:27:35;18.0;;;16.0;;
22673;SDS011;11504;43.334;21.918;2023-01-08T23:32:12;17.0;;;16.0;;
22673;SDS011;11504;43.334;21.918;2023-01-08T23:36:48;17.0;;;16.0;;
22673;SDS011;11504;43.334;21.918;2023-01-08T23:41:27;17.0;;;16.0;;
22673;SDS011;11504;43.334;21.918;2023-01-08T23:46:06;17.0;;;16.0;;
22673;SDS011;11504;43.334;21.918;2023-01-08T23:50:43;17.0;;;16.0;;
22673;SDS011;11504;43.334;21.918;2023-01-08T23:55:20;17.0;;;16.0;;
22673;SDS011;11504;43.334;21.918;2023-01-08T23:59:58;17.0;;;16.0;;
